Tenakee Springs, AK (99841)

9:55 PM AKST on December 25, 2014 (GMT -0900)
Hoonah | Change Station
CLOSE
Current Station
Airport
Location: Hoonah,
Elevation: 0 ft
Nearby Weather Stations

Elev 0 ft 58.11 °N, 135.45 °W | Updated 59 minutes ago

Rain
Rain
33 °F
Feels Like 33 °F
N
0
Wind Variable Wind from North

Today
High -- | Low -- °F
--% Chance of Precip.
Yesterday
High -- | Low -- °F
Precip. -- in
8:44 AM 3:17 PM
Waxing Crescent, 23% visible
Pressure 30.08 in
Visibility 10.0 miles
Clouds Mostly Cloudy 5000 ft
Dew Point 33 °F
Humidity 100%
Rainfall 0.06 in
Snow Depth Not available.
UV 0 out of 12
Pollen Not available.
Air Quality Not available.
Flu Activity Not available.
METAR PAOH 260556Z AUTO 00000KT 10SM RA BKN050 01/01 A3007 RMK AO2 TSNO 53009 60000 T00050005 10016 20005 BKN V SCT P0000 SLP184 $

More Conditions Fewer Conditions

Pressure 30.08 in
Visibility 10.0 miles
Clouds Mostly Cloudy 5000 ft
Dew Point 33 °F
Humidity 100%
Rainfall 0.06 in
Snow Depth Not available.
UV 0 out of 12
Pollen Not available.
Air Quality Not available.
Flu Activity Not available.
METAR PAOH 260556Z AUTO 00000KT 10SM RA BKN050 01/01 A3007 RMK AO2 TSNO 53009 60000 T00050005 10016 20005 BKN V SCT P0000 SLP184 $

More Conditions Fewer Conditions

10-Day Weather Forecast

Almanac

Astronomy

Dec. 25, 2014 Rise Set
Actual Time
Civil Twilight
Nautical Twilight
Astronomical Twilight
Moon
Length of Visible Light
Length of Day
Tomorrow will be .
, % of the Moon is Illuminated

Today's Extremes

State Highs State Lows

Community

WunderPhotos

Upload Photos

1,780,568 photos uploaded!

WunderBlogs® & News

Nearby

Air Quality

  Air Quality AQ Index Pollutant
Not available.

Snow Depth

Station Depth Elevation

Earthquake Activity

City Distance Mag. Time & Date
Minimum magnitude displayed is 2.5.

Coastal Water Temperatures

Place Temperature

Nearby Weather Stations